createdAt,value
2022-12-19T00:00:13.953Z,-0.43
2022-12-19T00:01:10.500Z,-0.44
2022-12-19T00:02:11.075Z,-0.51
2022-12-19T00:03:10.631Z,-0.53
2022-12-19T00:04:10.557Z,-0.53
2022-12-19T00:05:10.502Z,-0.49
2022-12-19T00:06:10.925Z,-0.47
2022-12-19T00:07:10.851Z,-0.53
2022-12-19T00:08:17.121Z,-0.62
2022-12-19T00:09:10.490Z,-0.61
2022-12-19T00:10:13.646Z,-0.6
2022-12-19T00:11:10.714Z,-0.55
2022-12-19T00:12:15.920Z,-0.49
2022-12-19T00:13:10.575Z,-0.48
2022-12-19T00:14:10.503Z,-0.51
2022-12-19T00:15:10.496Z,-0.53
2022-12-19T00:16:10.592Z,-0.49
2022-12-19T00:17:11.698Z,-0.41
2022-12-19T00:18:10.636Z,-0.38
2022-12-19T00:19:10.491Z,-0.38
2022-12-19T00:20:10.569Z,-0.39
2022-12-19T00:21:16.513Z,-0.42
2022-12-19T00:22:11.394Z,-0.47
2022-12-19T00:23:10.945Z,-0.43
2022-12-19T00:24:18.438Z,-0.38
2022-12-19T00:25:10.504Z,-0.38
2022-12-19T00:26:10.604Z,-0.35
2022-12-19T00:27:10.625Z,-0.32
2022-12-19T00:28:10.947Z,-0.27
2022-12-19T00:29:14.304Z,-0.27
2022-12-19T00:30:12.604Z,-0.25
2022-12-19T00:31:10.560Z,-0.24
2022-12-19T00:32:13.734Z,-0.3
2022-12-19T00:33:10.872Z,-0.27
2022-12-19T00:34:11.042Z,-0.23
2022-12-19T00:35:10.642Z,-0.23
2022-12-19T00:36:10.502Z,-0.28
2022-12-19T00:37:10.592Z,-0.33
2022-12-19T00:38:10.865Z,-0.36
2022-12-19T00:39:10.617Z,-0.35
2022-12-19T00:40:10.566Z,-0.34
2022-12-19T00:41:10.722Z,-0.35
2022-12-19T00:42:10.571Z,-0.32
2022-12-19T00:43:16.606Z,-0.3
2022-12-19T00:44:10.577Z,-0.23
2022-12-19T00:45:10.611Z,-0.2
2022-12-19T00:46:10.633Z,-0.19
2022-12-19T00:47:10.497Z,-0.19
2022-12-19T00:48:10.942Z,-0.24
2022-12-19T00:49:13.874Z,-0.31
2022-12-19T00:50:10.580Z,-0.3
2022-12-19T00:51:10.490Z,-0.26
2022-12-19T00:52:10.698Z,-0.29
2022-12-19T00:53:10.951Z,-0.28
2022-12-19T00:54:10.641Z,-0.33
2022-12-19T00:55:14.150Z,-0.28
2022-12-19T00:56:10.606Z,-0.25
2022-12-19T00:57:10.598Z,-0.23
2022-12-19T00:58:10.946Z,-0.22
2022-12-19T00:59:10.850Z,-0.26
2022-12-19T01:00:13.568Z,-0.24
2022-12-19T01:01:10.776Z,-0.19
2022-12-19T01:02:10.823Z,-0.12
2022-12-19T01:03:10.933Z,-0.13
2022-12-19T01:04:31.121Z,-0.17
2022-12-19T01:05:10.524Z,-0.22
2022-12-19T01:06:10.597Z,-0.23
2022-12-19T01:07:10.662Z,-0.19
2022-12-19T01:08:10.937Z,-0.15
2022-12-19T01:09:10.629Z,-0.09
2022-12-19T01:10:10.604Z,-0.05
2022-12-19T01:11:13.696Z,-0.05
2022-12-19T01:12:10.681Z,-0.02
2022-12-19T01:13:10.946Z,-0.01
2022-12-19T01:14:10.565Z,-0.05
2022-12-19T01:15:10.693Z,-0.11
2022-12-19T01:16:10.511Z,-0.11
2022-12-19T01:17:10.501Z,-0.15
2022-12-19T01:18:11.015Z,-0.16
2022-12-19T01:19:11.443Z,-0.19
2022-12-19T01:20:10.567Z,-0.18
2022-12-19T01:21:10.481Z,-0.16
2022-12-19T01:22:13.617Z,-0.16
2022-12-19T01:23:10.862Z,-0.12
2022-12-19T01:24:10.636Z,-0.06
2022-12-19T01:25:10.557Z,-0.02
2022-12-19T01:26:10.581Z,-0.06
2022-12-19T01:27:10.584Z,0
2022-12-19T01:28:10.871Z,0.01
2022-12-19T01:29:10.488Z,-0.04
2022-12-19T01:30:10.594Z,-0.08
2022-12-19T01:31:10.665Z,-0.05
2022-12-19T01:32:10.483Z,-0.03
2022-12-19T01:33:10.943Z,-0.06
2022-12-19T01:34:10.868Z,-0.08
2022-12-19T01:35:20.814Z,-0.05
2022-12-19T01:36:10.569Z,-0.07
2022-12-19T01:37:10.595Z,-0.14
2022-12-19T01:38:16.548Z,-0.21
2022-12-19T01:39:10.579Z,-0.16
2022-12-19T01:40:10.607Z,-0.07
2022-12-19T01:41:10.495Z,0
2022-12-19T01:42:10.489Z,0.01
2022-12-19T01:43:10.938Z,0.01
2022-12-19T01:44:13.655Z,0
2022-12-19T01:45:13.830Z,-0.03
2022-12-19T01:46:10.566Z,0
2022-12-19T01:47:10.589Z,0.02
2022-12-19T01:48:10.941Z,-0.04
2022-12-19T01:49:10.865Z,-0.02
2022-12-19T01:50:10.573Z,0
2022-12-19T01:51:10.569Z,0.05
2022-12-19T01:52:12.892Z,0.11
2022-12-19T01:53:10.982Z,0.09
2022-12-19T01:54:10.685Z,0.08
2022-12-19T01:55:10.621Z,0.05
2022-12-19T01:56:10.455Z,0.06
2022-12-19T01:57:10.609Z,0.06
2022-12-19T01:58:10.836Z,0.05
2022-12-19T01:59:10.698Z,0.05
2022-12-19T02:00:13.509Z,0
2022-12-19T02:01:10.568Z,-0.06
2022-12-19T02:02:10.813Z,-0.09
2022-12-19T02:03:10.876Z,-0.09
2022-12-19T02:04:10.887Z,-0.15
2022-12-19T02:05:10.467Z,-0.3
2022-12-19T02:06:10.601Z,-0.34
2022-12-19T02:07:15.839Z,-0.32
2022-12-19T02:08:10.925Z,-0.36
2022-12-19T02:09:10.622Z,-0.43
2022-12-19T02:10:10.692Z,-0.48
2022-12-19T02:11:13.614Z,-0.53
2022-12-19T02:12:10.653Z,-0.59
2022-12-19T02:13:10.837Z,-0.63
2022-12-19T02:14:10.700Z,-0.65
2022-12-19T02:15:10.532Z,-0.68
2022-12-19T02:16:10.517Z,-0.63
2022-12-19T02:17:10.591Z,-0.57
2022-12-19T02:18:10.837Z,-0.45
2022-12-19T02:19:11.796Z,-0.36
2022-12-19T02:20:10.487Z,-0.39
2022-12-19T02:21:10.462Z,-0.42
2022-12-19T02:22:18.755Z,-0.43
2022-12-19T02:23:10.852Z,-0.44
2022-12-19T02:24:10.549Z,-0.46
2022-12-19T02:25:10.595Z,-0.43
2022-12-19T02:26:10.567Z,-0.36
2022-12-19T02:27:10.469Z,-0.29
2022-12-19T02:28:10.846Z,-0.16
2022-12-19T02:29:10.570Z,-0.18
2022-12-19T02:30:10.542Z,-0.19
2022-12-19T02:31:17.517Z,-0.32
2022-12-19T02:32:10.490Z,-0.31
2022-12-19T02:33:16.571Z,-0.32
2022-12-19T02:34:10.851Z,-0.36
2022-12-19T02:35:10.555Z,-0.36
2022-12-19T02:36:10.470Z,-0.36
2022-12-19T02:37:10.482Z,-0.3
2022-12-19T02:38:13.153Z,-0.35
2022-12-19T02:39:10.683Z,-0.49
2022-12-19T02:40:10.703Z,-0.56
2022-12-19T02:41:10.682Z,-0.55
2022-12-19T02:42:10.470Z,-0.55
2022-12-19T02:43:10.927Z,-0.56
2022-12-19T02:44:10.487Z,-0.67
2022-12-19T02:45:10.493Z,-0.67
2022-12-19T02:46:10.561Z,-0.6
2022-12-19T02:47:10.580Z,-0.54
2022-12-19T02:48:12.289Z,-0.51
2022-12-19T02:49:10.879Z,-0.46
2022-12-19T02:50:10.492Z,-0.45
2022-12-19T02:51:10.498Z,-0.43
2022-12-19T02:52:10.711Z,-0.39
2022-12-19T02:53:10.856Z,-0.44
2022-12-19T02:54:13.566Z,-0.45
2022-12-19T02:55:10.491Z,-0.36
2022-12-19T02:56:10.799Z,-0.28
2022-12-19T02:57:10.681Z,-0.24
2022-12-19T02:58:10.875Z,-0.22
2022-12-19T02:59:10.665Z,-0.19
2022-12-19T03:00:10.505Z,-0.25
2022-12-19T03:01:10.546Z,-0.22
2022-12-19T03:02:10.660Z,-0.26
2022-12-19T03:03:11.081Z,-0.32
2022-12-19T03:04:10.691Z,-0.33
2022-12-19T03:05:10.490Z,-0.32
2022-12-19T03:06:10.575Z,-0.31
2022-12-19T03:07:10.510Z,-0.27
2022-12-19T03:08:11.185Z,-0.16
2022-12-19T03:09:10.677Z,-0.16
2022-12-19T03:10:13.481Z,-0.17
2022-12-19T03:11:10.584Z,-0.19
2022-12-19T03:12:15.745Z,-0.2
2022-12-19T03:13:10.878Z,-0.26
2022-12-19T03:14:10.593Z,-0.25
2022-12-19T03:15:10.508Z,-0.22
2022-12-19T03:16:10.516Z,-0.24
2022-12-19T03:17:10.487Z,-0.31
2022-12-19T03:18:10.996Z,-0.22
2022-12-19T03:19:10.701Z,-0.2
2022-12-19T03:20:10.604Z,-0.27
2022-12-19T03:21:13.586Z,-0.31
2022-12-19T03:22:10.593Z,-0.33
2022-12-19T03:23:10.871Z,-0.33
2022-12-19T03:24:10.601Z,-0.33
2022-12-19T03:25:10.502Z,-0.3
2022-12-19T03:26:10.588Z,-0.23
2022-12-19T03:27:10.616Z,-0.14
2022-12-19T03:28:10.948Z,-0.16
2022-12-19T03:29:10.682Z,-0.2
2022-12-19T03:30:10.487Z,-0.26
2022-12-19T03:31:10.751Z,-0.25
2022-12-19T03:32:13.542Z,-0.27
2022-12-19T03:33:10.887Z,-0.25
2022-12-19T03:34:11.019Z,-0.2
2022-12-19T03:35:10.586Z,-0.16
2022-12-19T03:36:10.682Z,-0.11
2022-12-19T03:37:10.668Z,-0.12
2022-12-19T03:38:10.884Z,-0.23
2022-12-19T03:39:10.529Z,-0.2
2022-12-19T03:40:10.494Z,-0.19
2022-12-19T03:41:10.494Z,-0.31
2022-12-19T03:42:10.491Z,-0.34
2022-12-19T03:43:13.644Z,-0.34
2022-12-19T03:44:10.588Z,-0.29
2022-12-19T03:45:10.485Z,-0.22
2022-12-19T03:46:10.656Z,-0.2
2022-12-19T03:47:10.595Z,-0.16
2022-12-19T03:48:10.962Z,-0.12
2022-12-19T03:49:10.924Z,-0.25
2022-12-19T03:50:10.552Z,-0.25
2022-12-19T03:51:10.604Z,-0.22
2022-12-19T03:52:10.507Z,-0.15
2022-12-19T03:53:10.967Z,-0.09
2022-12-19T03:54:13.658Z,-0.08
2022-12-19T03:55:10.688Z,-0.06
2022-12-19T03:56:10.594Z,-0.04
2022-12-19T03:57:10.528Z,0.01
2022-12-19T03:58:10.959Z,-0.02
2022-12-19T03:59:10.697Z,0.04
2022-12-19T04:00:10.495Z,0.08
2022-12-19T04:01:10.680Z,0.14
2022-12-19T04:02:10.739Z,0.21
2022-12-19T04:03:11.025Z,0.17
2022-12-19T04:04:10.905Z,0.12
2022-12-19T04:05:13.516Z,0.12
2022-12-19T04:06:10.599Z,0.14
2022-12-19T04:07:10.617Z,0.11
2022-12-19T04:08:10.683Z,0.04
2022-12-19T04:09:10.595Z,0.02
2022-12-19T04:10:10.630Z,0.06
2022-12-19T04:11:10.645Z,0.13
2022-12-19T04:12:10.536Z,0.13
2022-12-19T04:13:10.885Z,0.16
2022-12-19T04:14:10.611Z,0.21
2022-12-19T04:15:10.522Z,0.19
2022-12-19T04:16:13.613Z,0.23
2022-12-19T04:17:10.603Z,0.21
2022-12-19T04:18:10.632Z,0.11
2022-12-19T04:19:10.878Z,0.11
2022-12-19T04:20:10.497Z,0.16
2022-12-19T04:21:10.517Z,0.13
2022-12-19T04:22:10.644Z,0.13
2022-12-19T04:23:10.959Z,0.17
2022-12-19T04:24:10.600Z,0.12
2022-12-19T04:25:10.515Z,0.15
2022-12-19T04:26:10.605Z,0.1
2022-12-19T04:27:13.678Z,0.11
2022-12-19T04:28:10.887Z,0.16
2022-12-19T04:29:10.732Z,0.25
2022-12-19T04:30:10.700Z,0.31
2022-12-19T04:31:10.637Z,0.34
2022-12-19T04:32:10.615Z,0.37
2022-12-19T04:33:10.884Z,0.42
2022-12-19T04:34:10.646Z,0.46
2022-12-19T04:35:10.549Z,0.53
2022-12-19T04:36:10.606Z,0.62
2022-12-19T04:37:10.569Z,0.61
2022-12-19T04:38:13.549Z,0.65
2022-12-19T04:39:10.597Z,0.69
2022-12-19T04:40:10.629Z,0.63
2022-12-19T04:41:10.782Z,0.53
2022-12-19T04:42:10.579Z,0.6
2022-12-19T04:43:10.976Z,0.59
2022-12-19T04:44:13.640Z,0.61
2022-12-19T04:45:10.580Z,0.58
2022-12-19T04:46:10.564Z,0.6
2022-12-19T04:47:10.519Z,0.7
2022-12-19T04:48:10.950Z,0.61
2022-12-19T04:49:10.882Z,0.52
2022-12-19T04:50:13.649Z,0.54
2022-12-19T04:51:10.602Z,0.47
2022-12-19T04:52:10.619Z,0.46
2022-12-19T04:53:10.891Z,0.47
2022-12-19T04:54:10.600Z,0.49
2022-12-19T04:55:10.500Z,0.48
2022-12-19T04:56:10.658Z,0.46
2022-12-19T04:57:10.679Z,0.44
2022-12-19T04:58:11.028Z,0.41
2022-12-19T04:59:10.735Z,0.46
2022-12-19T05:00:10.741Z,0.45
2022-12-19T05:01:13.676Z,0.44
2022-12-19T05:02:10.670Z,0.47
2022-12-19T05:03:11.028Z,0.49
2022-12-19T05:04:10.921Z,0.46
2022-12-19T05:05:10.622Z,0.48
2022-12-19T05:06:10.683Z,0.41
2022-12-19T05:07:10.603Z,0.39
2022-12-19T05:08:10.958Z,0.43
2022-12-19T05:09:10.701Z,0.52
2022-12-19T05:10:10.736Z,0.54
2022-12-19T05:11:13.358Z,0.53
2022-12-19T05:12:10.668Z,0.59
2022-12-19T05:13:10.957Z,0.57
2022-12-19T05:14:10.684Z,0.61
2022-12-19T05:15:10.694Z,0.65
2022-12-19T05:16:10.663Z,0.67
2022-12-19T05:17:13.513Z,0.68
2022-12-19T05:18:10.629Z,0.76
2022-12-19T05:19:11.006Z,0.76
2022-12-19T05:20:10.596Z,0.71
2022-12-19T05:21:10.492Z,0.77
2022-12-19T05:22:10.584Z,0.79
2022-12-19T05:23:17.907Z,0.73
2022-12-19T05:24:10.493Z,0.72
2022-12-19T05:25:10.534Z,0.7
2022-12-19T05:26:10.524Z,0.65
2022-12-19T05:27:10.604Z,0.54
2022-12-19T05:28:10.618Z,0.54
2022-12-19T05:29:13.546Z,0.48
2022-12-19T05:30:10.693Z,0.42
2022-12-19T05:31:10.649Z,0.32
2022-12-19T05:32:10.497Z,0.27
2022-12-19T05:33:10.884Z,0.22
2022-12-19T05:34:11.023Z,0.16
2022-12-19T05:35:10.508Z,0.17
2022-12-19T05:36:10.518Z,0.25
2022-12-19T05:37:10.616Z,0.27
2022-12-19T05:38:10.958Z,0.32
2022-12-19T05:39:10.592Z,0.34
2022-12-19T05:40:13.637Z,0.4
2022-12-19T05:41:10.735Z,0.43
2022-12-19T05:42:12.329Z,0.42
2022-12-19T05:43:10.705Z,0.37
2022-12-19T05:44:10.622Z,0.3
2022-12-19T05:45:10.519Z,0.22
2022-12-19T05:46:10.528Z,0.25
2022-12-19T05:47:11.017Z,0.29
2022-12-19T05:48:10.712Z,0.3
2022-12-19T05:49:10.541Z,0.31
2022-12-19T05:50:10.726Z,0.3
2022-12-19T05:51:13.502Z,0.41
2022-12-19T05:52:11.004Z,0.45
2022-12-19T05:53:10.509Z,0.49
2022-12-19T05:54:10.602Z,0.49
2022-12-19T05:55:10.487Z,0.52
2022-12-19T05:56:10.603Z,0.47
2022-12-19T05:57:10.875Z,0.51
2022-12-19T05:58:10.624Z,0.48
2022-12-19T05:59:10.715Z,0.38
2022-12-19T06:00:10.713Z,0.33
2022-12-19T06:01:10.498Z,0.36
2022-12-19T06:02:11.038Z,0.42
2022-12-19T06:03:10.763Z,0.49
2022-12-19T06:04:10.881Z,0.5
2022-12-19T06:05:10.489Z,0.54
2022-12-19T06:06:10.594Z,0.7
2022-12-19T06:07:20.711Z,0.74
2022-12-19T06:08:10.691Z,0.71
2022-12-19T06:09:10.719Z,0.67
2022-12-19T06:10:10.585Z,0.56
2022-12-19T06:11:10.726Z,0.59
2022-12-19T06:12:10.958Z,0.58
2022-12-19T06:13:10.621Z,0.66
2022-12-19T06:14:10.572Z,0.64
2022-12-19T06:15:10.499Z,0.74
2022-12-19T06:16:11.092Z,0.81
2022-12-19T06:17:10.631Z,0.82
2022-12-19T06:18:13.532Z,0.88
2022-12-19T06:19:10.884Z,0.95
2022-12-19T06:20:10.708Z,1
2022-12-19T06:21:10.863Z,1.04
2022-12-19T06:22:10.562Z,1.02
2022-12-19T06:23:10.585Z,1.06
2022-12-19T06:24:10.501Z,1.06
2022-12-19T06:25:10.606Z,1.06
2022-12-19T06:26:15.541Z,1.07
2022-12-19T06:27:10.603Z,1.11
2022-12-19T06:28:10.635Z,1.12
2022-12-19T06:29:13.592Z,1.16
2022-12-19T06:30:10.611Z,1.11
2022-12-19T06:31:11.042Z,1.11
2022-12-19T06:32:10.567Z,1.12
2022-12-19T06:33:10.586Z,1.16
2022-12-19T06:34:11.170Z,1.2
2022-12-19T06:35:10.644Z,1.17
2022-12-19T06:36:10.542Z,1.2
2022-12-19T06:37:10.489Z,1.25
2022-12-19T06:38:10.621Z,1.12
2022-12-19T06:39:10.701Z,0.97
2022-12-19T06:40:13.611Z,0.89
2022-12-19T06:41:10.886Z,0.89
2022-12-19T06:42:10.688Z,1.01
2022-12-19T06:43:10.597Z,1.01
2022-12-19T06:44:10.662Z,0.92
2022-12-19T06:45:10.708Z,0.81
2022-12-19T06:46:16.679Z,0.73
2022-12-19T06:47:10.599Z,0.77
2022-12-19T06:48:10.511Z,0.77
2022-12-19T06:49:10.957Z,0.73
2022-12-19T06:50:10.559Z,0.7
2022-12-19T06:51:10.958Z,0.73
2022-12-19T06:52:10.499Z,0.76
2022-12-19T06:53:10.610Z,0.82
2022-12-19T06:54:10.673Z,0.8
2022-12-19T06:55:10.605Z,0.73
2022-12-19T06:56:10.939Z,0.7
2022-12-19T06:57:13.630Z,0.73
2022-12-19T06:58:10.585Z,0.78
2022-12-19T06:59:10.495Z,0.86
2022-12-19T07:00:10.512Z,0.92
2022-12-19T07:01:11.021Z,0.99
2022-12-19T07:02:10.694Z,1.02
2022-12-19T07:03:10.674Z,0.98
2022-12-19T07:04:10.949Z,1.05
2022-12-19T07:05:10.671Z,1.13
2022-12-19T07:06:11.011Z,1.12
2022-12-19T07:07:10.604Z,1.13
2022-12-19T07:08:10.614Z,1.11
2022-12-19T07:09:10.589Z,1.15
2022-12-19T07:10:10.505Z,1.24
2022-12-19T07:11:10.884Z,1.3
2022-12-19T07:12:10.626Z,1.34
2022-12-19T07:13:13.499Z,1.38
2022-12-19T07:14:10.682Z,1.44
2022-12-19T07:15:10.504Z,1.45
2022-12-19T07:16:11.063Z,1.41
2022-12-19T07:17:10.725Z,1.38
2022-12-19T07:18:10.589Z,1.42
2022-12-19T07:19:10.518Z,1.48
2022-12-19T07:20:10.488Z,1.51
2022-12-19T07:21:10.868Z,1.55
2022-12-19T07:22:10.570Z,1.53
2022-12-19T07:23:10.502Z,1.55
2022-12-19T07:24:10.516Z,1.52
2022-12-19T07:25:10.586Z,1.54
2022-12-19T07:26:10.941Z,1.55
2022-12-19T07:27:10.623Z,1.54
2022-12-19T07:28:10.499Z,1.52
2022-12-19T07:29:13.633Z,1.57
2022-12-19T07:30:10.683Z,1.6
2022-12-19T07:31:10.973Z,1.62
2022-12-19T07:32:10.615Z,1.65
2022-12-19T07:33:11.872Z,1.69
2022-12-19T07:34:10.976Z,1.72
2022-12-19T07:35:10.508Z,1.73
2022-12-19T07:36:11.506Z,1.72
2022-12-19T07:37:10.570Z,1.74
2022-12-19T07:38:10.505Z,1.71
2022-12-19T07:39:10.588Z,1.7
2022-12-19T07:40:13.635Z,1.74
2022-12-19T07:41:10.882Z,1.82
2022-12-19T07:42:10.685Z,1.86
2022-12-19T07:43:10.528Z,1.88
2022-12-19T07:44:10.521Z,1.88
2022-12-19T07:45:10.488Z,1.84
2022-12-19T07:46:10.899Z,1.76
2022-12-19T07:47:10.489Z,1.79
2022-12-19T07:48:10.489Z,1.86
2022-12-19T07:49:10.870Z,1.94
2022-12-19T07:50:10.608Z,1.96
2022-12-19T07:51:10.874Z,2.01
2022-12-19T07:52:10.710Z,2.04
2022-12-19T07:53:10.557Z,2.09
2022-12-19T07:54:10.614Z,2.13
2022-12-19T07:55:10.489Z,2.16
2022-12-19T07:56:13.650Z,2.12
2022-12-19T07:57:10.687Z,2.08
2022-12-19T07:58:10.609Z,2.08
2022-12-19T07:59:10.561Z,2.1
2022-12-19T08:00:10.615Z,2.11
2022-12-19T08:01:10.987Z,2.08
2022-12-19T08:02:10.666Z,2.05
2022-12-19T08:03:10.653Z,1.98
2022-12-19T08:04:10.872Z,1.88
2022-12-19T08:05:10.482Z,1.77
2022-12-19T08:06:11.008Z,1.77
2022-12-19T08:07:13.524Z,1.83
2022-12-19T08:08:10.614Z,1.91
2022-12-19T08:09:10.635Z,2
2022-12-19T08:10:10.671Z,1.91
2022-12-19T08:11:10.874Z,1.85
2022-12-19T08:12:10.615Z,1.81
2022-12-19T08:13:10.493Z,1.84
2022-12-19T08:14:10.551Z,1.92
2022-12-19T08:15:11.305Z,1.96
2022-12-19T08:16:10.975Z,2
2022-12-19T08:17:20.326Z,1.94
2022-12-19T08:18:13.508Z,1.96
2022-12-19T08:19:10.864Z,1.9
2022-12-19T08:20:10.490Z,1.89
2022-12-19T08:21:10.969Z,1.84
2022-12-19T08:22:10.658Z,1.85
2022-12-19T08:23:10.633Z,1.74
2022-12-19T08:24:10.634Z,1.68
2022-12-19T08:25:10.642Z,1.62
2022-12-19T08:26:10.873Z,1.48
2022-12-19T08:27:10.690Z,1.33
2022-12-19T08:28:10.557Z,1.26
2022-12-19T08:29:13.613Z,1.28
2022-12-19T08:30:10.580Z,1.3
2022-12-19T08:31:11.021Z,1.4
2022-12-19T08:32:13.307Z,1.5
2022-12-19T08:33:10.500Z,1.61
2022-12-19T08:34:10.948Z,1.66
2022-12-19T08:35:10.474Z,1.67
2022-12-19T08:36:10.878Z,1.68
2022-12-19T08:37:10.715Z,1.73
2022-12-19T08:38:10.662Z,1.75
2022-12-19T08:39:10.495Z,1.76
2022-12-19T08:40:13.641Z,1.82
2022-12-19T08:41:10.592Z,1.86
2022-12-19T08:42:10.640Z,1.87
2022-12-19T08:43:10.570Z,1.85
2022-12-19T08:44:10.574Z,1.87
2022-12-19T08:45:10.512Z,1.94
2022-12-19T08:46:10.946Z,1.95
2022-12-19T08:47:10.697Z,1.91
2022-12-19T08:48:10.715Z,1.95
2022-12-19T08:49:10.632Z,1.93
2022-12-19T08:50:10.494Z,1.94
2022-12-19T08:51:10.999Z,1.99
2022-12-19T08:52:10.706Z,2.04
2022-12-19T08:53:10.595Z,2.11
2022-12-19T08:54:11.846Z,2.14
2022-12-19T08:55:10.499Z,2.15
2022-12-19T08:56:16.624Z,2.12
2022-12-19T08:57:10.683Z,2.06
2022-12-19T08:58:10.488Z,2.04
2022-12-19T08:59:10.494Z,2.08
2022-12-19T09:00:10.711Z,2.09
2022-12-19T09:01:10.991Z,2.12
2022-12-19T09:02:10.910Z,2.18
2022-12-19T09:03:10.978Z,2.21
2022-12-19T09:04:44.124Z,2.2
2022-12-19T09:06:01.554Z,2.18
2022-12-19T09:07:01.800Z,2.17
2022-12-19T09:07:57.789Z,2.19
2022-12-19T09:08:59.909Z,2.19
2022-12-19T09:09:57.773Z,2.22
2022-12-19T09:10:58.135Z,2.27
2022-12-19T09:11:57.745Z,2.33
2022-12-19T09:12:58.093Z,2.35
2022-12-19T09:13:57.788Z,2.34
2022-12-19T09:14:57.849Z,2.41
2022-12-19T09:15:58.045Z,2.42
2022-12-19T09:16:57.829Z,2.39
2022-12-19T09:18:00.793Z,2.36
2022-12-19T09:18:57.745Z,2.29
2022-12-19T09:19:58.136Z,2.26
2022-12-19T09:20:58.065Z,2.32
2022-12-19T09:21:57.778Z,2.33
2022-12-19T09:22:57.664Z,2.39
2022-12-19T09:24:03.510Z,2.42
2022-12-19T09:24:57.697Z,2.45
2022-12-19T09:25:58.146Z,2.47
2022-12-19T09:26:57.883Z,2.51
2022-12-19T09:28:25.767Z,2.51
2022-12-19T09:29:00.865Z,2.49
2022-12-19T09:29:57.771Z,2.46
2022-12-19T09:30:58.251Z,2.45
2022-12-19T09:31:57.867Z,2.44
2022-12-19T09:32:57.890Z,2.47
2022-12-19T09:33:57.789Z,2.54
2022-12-19T09:34:58.059Z,2.59
2022-12-19T09:35:58.125Z,2.6
2022-12-19T09:36:57.889Z,2.63
2022-12-19T09:38:00.374Z,2.63
2022-12-19T09:38:57.769Z,2.51
2022-12-19T09:40:00.815Z,2.45
2022-12-19T09:40:58.061Z,2.39
2022-12-19T09:41:57.737Z,2.48
2022-12-19T09:42:57.750Z,2.57
2022-12-19T09:43:57.684Z,2.61
2022-12-19T09:44:57.746Z,2.62
2022-12-19T09:45:57.691Z,2.63
2022-12-19T09:46:57.804Z,2.63
2022-12-19T09:47:57.784Z,2.65
2022-12-19T09:48:57.765Z,2.67
2022-12-19T09:49:58.058Z,2.7
2022-12-19T09:51:10.301Z,2.59
2022-12-19T09:51:57.762Z,2.52
2022-12-19T09:52:57.783Z,2.52
2022-12-19T09:53:57.854Z,2.56
2022-12-19T09:54:57.652Z,2.61
2022-12-19T09:55:58.121Z,2.67
2022-12-19T09:56:57.795Z,2.66
2022-12-19T09:57:57.668Z,2.62
2022-12-19T09:58:57.681Z,2.59
2022-12-19T09:59:57.835Z,2.64
2022-12-19T10:00:59.948Z,2.67
2022-12-19T10:02:00.942Z,2.65
2022-12-19T10:02:58.120Z,2.67
2022-12-19T10:03:57.872Z,2.68
2022-12-19T10:05:05.557Z,2.7
2022-12-19T10:07:11.418Z,2.72
2022-12-19T10:07:12.469Z,2.68
2022-12-19T10:08:08.475Z,2.68
2022-12-19T10:09:54.131Z,2.72
2022-12-19T10:11:55.483Z,2.77
2022-12-19T10:12:42.675Z,2.7
2022-12-19T10:12:52.853Z,2.73
2022-12-19T10:13:44.472Z,2.82
2022-12-19T10:14:44.318Z,2.88
2022-12-19T10:15:44.719Z,2.84
2022-12-19T10:17:02.011Z,2.78
2022-12-19T10:17:44.319Z,2.65
2022-12-19T10:18:44.241Z,2.57
2022-12-19T10:19:44.727Z,2.53
2022-12-19T10:20:44.607Z,2.47
2022-12-19T10:22:16.332Z,2.48
2022-12-19T10:22:44.233Z,2.52
2022-12-19T10:23:44.282Z,2.56
2022-12-19T10:24:44.225Z,2.63
2022-12-19T10:25:44.681Z,2.72
2022-12-19T10:26:44.332Z,2.59
2022-12-19T10:27:58.689Z,2.55
2022-12-19T10:28:44.272Z,2.6
2022-12-19T10:29:44.235Z,2.66
2022-12-19T10:30:44.779Z,2.56
2022-12-19T10:31:44.456Z,2.54
2022-12-19T10:32:44.398Z,2.51
2022-12-19T10:33:44.388Z,2.57
2022-12-19T10:34:44.670Z,2.54
2022-12-19T10:35:44.612Z,2.61
2022-12-19T10:37:12.896Z,2.65
2022-12-19T10:37:49.337Z,2.69
2022-12-19T10:38:51.242Z,2.74
2022-12-19T10:39:44.429Z,2.74
2022-12-19T10:40:44.612Z,2.72
2022-12-19T10:41:44.412Z,2.67
2022-12-19T10:42:44.227Z,2.69
2022-12-19T10:43:44.820Z,2.65
2022-12-19T10:44:44.312Z,2.66
2022-12-19T10:45:45.378Z,2.65
2022-12-19T10:46:44.405Z,2.62
2022-12-19T10:47:44.239Z,2.53
2022-12-19T10:48:44.263Z,2.46
2022-12-19T10:49:47.294Z,2.54
2022-12-19T10:50:44.603Z,2.47
2022-12-19T10:51:44.308Z,2.38
2022-12-19T10:52:44.221Z,2.3
2022-12-19T10:53:44.339Z,2.28
2022-12-19T10:54:44.375Z,2.35
2022-12-19T10:55:44.610Z,2.38
2022-12-19T10:56:44.354Z,2.4
2022-12-19T10:57:44.379Z,2.47
2022-12-19T10:58:44.629Z,2.57
2022-12-19T10:59:44.364Z,2.61
2022-12-19T11:00:50.426Z,2.55
2022-12-19T11:01:44.576Z,2.44
2022-12-19T11:02:44.570Z,2.43
2022-12-19T11:03:44.364Z,2.41
2022-12-19T11:04:44.740Z,2.41
2022-12-19T11:05:44.708Z,2.41
2022-12-19T11:06:44.271Z,2.44
2022-12-19T11:07:44.465Z,2.49
2022-12-19T11:08:44.370Z,2.57
2022-12-19T11:09:46.768Z,2.66
2022-12-19T11:11:05.645Z,2.7
2022-12-19T11:13:11.882Z,2.75
2022-12-19T11:17:44.404Z,2.83
2022-12-19T11:18:57.425Z,2.86
2022-12-19T11:19:33.128Z,2.7
2022-12-19T11:27:03.861Z,2.79
2022-12-19T11:29:16.169Z,2.81
2022-12-19T11:29:41.867Z,2.92
2022-12-19T11:29:44.648Z,2.78
2022-12-19T11:29:54.224Z,2.79
2022-12-19T11:30:37.377Z,2.91
2022-12-19T11:30:39.348Z,3
2022-12-19T11:30:43.170Z,2.82
2022-12-19T11:30:44.125Z,2.78
2022-12-19T11:31:51.130Z,2.72
2022-12-19T11:32:48.665Z,2.71
2022-12-19T11:33:48.035Z,2.74
2022-12-19T11:34:48.406Z,2.76
2022-12-19T11:35:48.168Z,2.81
2022-12-19T11:36:48.197Z,2.84
2022-12-19T11:37:55.118Z,2.87
2022-12-19T11:38:48.096Z,2.91
2022-12-19T11:39:48.019Z,2.98
2022-12-19T11:40:49.348Z,3.04
2022-12-19T11:41:48.059Z,2.97
2022-12-19T11:42:48.068Z,2.9
2022-12-19T11:43:48.003Z,2.91
2022-12-19T11:44:47.956Z,2.89
2022-12-19T11:45:48.447Z,2.82
2022-12-19T11:46:48.076Z,2.81
2022-12-19T11:47:47.955Z,2.74
2022-12-19T11:48:51.013Z,2.67
2022-12-19T11:49:48.409Z,2.65
2022-12-19T11:50:48.337Z,2.69
2022-12-19T11:51:47.964Z,2.69
2022-12-19T11:53:05.923Z,2.6
2022-12-19T11:53:48.049Z,2.63
2022-12-19T11:54:48.063Z,2.76
2022-12-19T11:55:48.405Z,2.89
2022-12-19T11:56:48.113Z,2.9
2022-12-19T11:57:48.102Z,2.92
2022-12-19T11:58:48.034Z,2.98
2022-12-19T11:59:51.026Z,3.01
2022-12-19T12:00:48.329Z,3.07
2022-12-19T12:01:48.247Z,3.04
2022-12-19T12:02:47.990Z,3.01
2022-12-19T12:04:01.999Z,3.08
2022-12-19T12:04:48.379Z,3.05
2022-12-19T12:05:48.328Z,3.01
2022-12-19T12:06:48.071Z,2.96
2022-12-19T12:07:58.715Z,2.96
2022-12-19T12:12:44.632Z,3.01
2022-12-19T12:13:30.354Z,3.21
2022-12-19T12:15:22.693Z,3.13
2022-12-19T12:23:57.438Z,3.22
2022-12-19T12:24:46.803Z,3.17
2022-12-19T12:24:48.052Z,3.22
2022-12-19T12:28:11.165Z,3.12
2022-12-19T12:31:00.905Z,3.11
2022-12-19T12:31:05.841Z,3.15
2022-12-19T12:31:08.295Z,3.15
2022-12-19T12:31:32.468Z,3.21
2022-12-19T12:31:39.144Z,3.06
2022-12-19T12:31:45.687Z,3.18
2022-12-19T12:31:48.874Z,3.09
2022-12-19T12:31:51.156Z,3.12
2022-12-19T12:32:02.526Z,3.09
2022-12-19T12:35:09.089Z,3.1
2022-12-19T12:35:34.264Z,3.13
2022-12-19T12:35:46.565Z,3.12
2022-12-19T12:36:56.063Z,3.06
2022-12-19T12:38:10.995Z,3.03
2022-12-19T12:38:25.977Z,2.99
2022-12-19T12:39:29.868Z,2.99
2022-12-19T12:40:23.854Z,2.99
2022-12-19T12:41:22.840Z,2.98
2022-12-19T12:42:22.548Z,2.99
2022-12-19T12:43:25.530Z,2.98
2022-12-19T12:44:29.238Z,2.93
2022-12-19T12:45:22.473Z,2.89
2022-12-19T12:46:22.964Z,2.82
2022-12-19T12:47:22.538Z,2.82
2022-12-19T12:48:22.612Z,2.8
2022-12-19T12:49:22.828Z,2.79
2022-12-19T12:50:22.597Z,2.78
2022-12-19T12:51:22.890Z,2.79
2022-12-19T12:52:22.678Z,2.82
2022-12-19T12:53:22.669Z,2.81
2022-12-19T12:54:25.633Z,2.82
2022-12-19T12:55:22.508Z,2.85
2022-12-19T12:56:22.893Z,2.89
2022-12-19T12:57:22.623Z,2.97
2022-12-19T12:58:23.969Z,2.99
2022-12-19T12:59:22.439Z,3.03
2022-12-19T13:00:22.444Z,3.02
2022-12-19T13:01:23.021Z,3.04
2022-12-19T13:02:22.809Z,3.04
2022-12-19T13:03:22.526Z,3.07
2022-12-19T13:04:22.896Z,3.14
2022-12-19T13:05:22.448Z,3.16
2022-12-19T13:06:22.818Z,3.16
2022-12-19T13:07:22.591Z,3.18
2022-12-19T13:08:22.548Z,3.2
2022-12-19T13:09:22.445Z,3.16
2022-12-19T13:10:25.528Z,3.15
2022-12-19T13:11:22.913Z,3.11
2022-12-19T13:12:22.658Z,3.09
2022-12-19T13:13:25.793Z,3.07
2022-12-19T13:14:22.541Z,3.07
2022-12-19T13:15:22.435Z,3.08
2022-12-19T13:16:22.893Z,3.1
2022-12-19T13:17:22.503Z,3.12
2022-12-19T13:18:22.613Z,3.14
2022-12-19T13:19:27.985Z,3.17
2022-12-19T13:20:22.452Z,3.21
2022-12-19T13:21:25.861Z,3.27
2022-12-19T13:22:22.591Z,3.32
2022-12-19T13:23:22.551Z,3.36
2022-12-19T13:24:22.462Z,3.42
2022-12-19T13:25:22.601Z,3.54
2022-12-19T13:26:22.811Z,3.59
2022-12-19T13:27:22.473Z,3.66
2022-12-19T13:28:22.526Z,3.68
2022-12-19T13:29:22.439Z,3.66
2022-12-19T13:30:22.448Z,3.64
2022-12-19T13:31:23.628Z,3.64